sensor_id;sensor_type;location;lat;lon;timestamp;pressure;altitude;pressure_sealevel;temperature;humidity
48848;BME280;36611;51.638;5.784;2023-02-19T00:01:28;101664.31;;;14.67;64.15
48848;BME280;36611;51.638;5.784;2023-02-19T00:04:04;101655.47;;;14.65;64.54
48848;BME280;36611;51.638;5.784;2023-02-19T00:06:33;101656.31;;;14.65;64.20
48848;BME280;36611;51.638;5.784;2023-02-19T00:09:00;101660.00;;;14.64;64.26
48848;BME280;36611;51.638;5.784;2023-02-19T00:11:29;101662.09;;;14.60;64.11
48848;BME280;36611;51.638;5.784;2023-02-19T00:13:57;101662.19;;;14.59;64.50
48848;BME280;36611;51.638;5.784;2023-02-19T00:16:35;101667.72;;;14.57;64.40
48848;BME280;36611;51.638;5.784;2023-02-19T00:19:04;101650.63;;;14.57;64.48
48848;BME280;36611;51.638;5.784;2023-02-19T00:21:32;101652.47;;;14.56;64.47
48848;BME280;36611;51.638;5.784;2023-02-19T00:24:01;101651.72;;;14.54;64.01
48848;BME280;36611;51.638;5.784;2023-02-19T00:26:28;101658.97;;;14.54;64.09
48848;BME280;36611;51.638;5.784;2023-02-19T00:28:56;101658.13;;;14.53;63.89
48848;BME280;36611;51.638;5.784;2023-02-19T00:31:31;101660.94;;;14.52;64.31
48848;BME280;36611;51.638;5.784;2023-02-19T00:34:04;101657.38;;;14.51;64.31
48848;BME280;36611;51.638;5.784;2023-02-19T00:36:33;101663.75;;;14.50;64.13
48848;BME280;36611;51.638;5.784;2023-02-19T00:39:02;101663.00;;;14.48;64.32
48848;BME280;36611;51.638;5.784;2023-02-19T00:41:29;101657.72;;;14.47;64.28
48848;BME280;36611;51.638;5.784;2023-02-19T00:44:01;101663.22;;;14.45;63.95
48848;BME280;36611;51.638;5.784;2023-02-19T00:46:36;101663.34;;;14.44;64.25
48848;BME280;36611;51.638;5.784;2023-02-19T00:49:05;101657.94;;;14.44;64.39
48848;BME280;36611;51.638;5.784;2023-02-19T00:51:35;101666.16;;;14.42;64.28
48848;BME280;36611;51.638;5.784;2023-02-19T00:54:04;101667.22;;;14.40;64.23
48848;BME280;36611;51.638;5.784;2023-02-19T00:56:31;101663.75;;;14.38;64.26
48848;BME280;36611;51.638;5.784;2023-02-19T00:58:58;101660.19;;;14.37;63.95
48848;BME280;36611;51.638;5.784;2023-02-19T01:01:25;101671.00;;;14.37;63.80
48848;BME280;36611;51.638;5.784;2023-02-19T01:03:52;101677.38;;;14.36;63.89
48848;BME280;36611;51.638;5.784;2023-02-19T01:06:19;101674.81;;;14.35;63.67
48848;BME280;36611;51.638;5.784;2023-02-19T01:08:47;101668.66;;;14.32;63.57
48848;BME280;36611;51.638;5.784;2023-02-19T01:11:15;101669.63;;;14.31;64.02
48848;BME280;36611;51.638;5.784;2023-02-19T01:13:42;101671.56;;;14.29;64.02
48848;BME280;36611;51.638;5.784;2023-02-19T01:16:13;101673.41;;;14.29;63.64
48848;BME280;36611;51.638;5.784;2023-02-19T01:18:40;101668.25;;;14.26;63.64
48848;BME280;36611;51.638;5.784;2023-02-19T01:21:11;101681.63;;;14.27;64.05
48848;BME280;36611;51.638;5.784;2023-02-19T01:23:38;101670.06;;;14.25;63.57
48848;BME280;36611;51.638;5.784;2023-02-19T01:26:07;101672.66;;;14.27;63.63
48848;BME280;36611;51.638;5.784;2023-02-19T01:28:34;101686.16;;;14.27;63.77
48848;BME280;36611;51.638;5.784;2023-02-19T01:31:06;101689.84;;;14.26;63.50
48848;BME280;36611;51.638;5.784;2023-02-19T01:33:33;101686.28;;;14.25;63.41
48848;BME280;36611;51.638;5.784;2023-02-19T01:36:04;101695.38;;;14.24;63.77
48848;BME280;36611;51.638;5.784;2023-02-19T01:38:31;101690.94;;;14.23;63.65
48848;BME280;36611;51.638;5.784;2023-02-19T01:41:00;101694.63;;;14.22;63.61
48848;BME280;36611;51.638;5.784;2023-02-19T01:43:28;101704.66;;;14.20;63.45
48848;BME280;36611;51.638;5.784;2023-02-19T01:45:56;101687.59;;;14.20;63.66
48848;BME280;36611;51.638;5.784;2023-02-19T01:48:31;101705.66;;;14.19;63.39
48848;BME280;36611;51.638;5.784;2023-02-19T01:51:07;101699.25;;;14.20;63.61
48848;BME280;36611;51.638;5.784;2023-02-19T01:53:37;101700.13;;;14.21;63.19
48848;BME280;36611;51.638;5.784;2023-02-19T01:56:07;101705.53;;;14.21;63.47
48848;BME280;36611;51.638;5.784;2023-02-19T01:58:36;101711.81;;;14.21;63.29
48848;BME280;36611;51.638;5.784;2023-02-19T02:01:05;101698.41;;;14.20;63.18
48848;BME280;36611;51.638;5.784;2023-02-19T02:03:34;101711.81;;;14.21;63.25
48848;BME280;36611;51.638;5.784;2023-02-19T02:08:30;101699.38;;;14.19;63.19
48848;BME280;36611;51.638;5.784;2023-02-19T02:11:19;101700.34;;;14.18;63.05
48848;BME280;36611;51.638;5.784;2023-02-19T02:13:46;101698.63;;;14.17;62.77
48848;BME280;36611;51.638;5.784;2023-02-19T02:16:29;101695.19;;;14.15;62.62
48848;BME280;36611;51.638;5.784;2023-02-19T02:22:06;101695.19;;;14.15;62.67
48848;BME280;36611;51.638;5.784;2023-02-19T02:30:15;101691.72;;;14.13;62.80
48848;BME280;36611;51.638;5.784;2023-02-19T02:35:34;101695.47;;;14.10;62.62
48848;BME280;36611;51.638;5.784;2023-02-19T02:38:06;101696.34;;;14.11;63.07
48848;BME280;36611;51.638;5.784;2023-02-19T02:40:33;101698.19;;;14.10;62.95
48848;BME280;36611;51.638;5.784;2023-02-19T02:43:00;101708.13;;;14.10;62.88
48848;BME280;36611;51.638;5.784;2023-02-19T02:45:32;101701.00;;;14.09;62.56
48848;BME280;36611;51.638;5.784;2023-02-19T02:51:20;101700.22;;;14.07;62.89
48848;BME280;36611;51.638;5.784;2023-02-19T02:54:03;101704.56;;;14.09;62.90
48848;BME280;36611;51.638;5.784;2023-02-19T02:56:53;101711.78;;;14.09;62.55
48848;BME280;36611;51.638;5.784;2023-02-19T02:59:24;101713.75;;;14.07;62.81
48848;BME280;36611;51.638;5.784;2023-02-19T03:02:06;101711.16;;;14.05;62.95
48848;BME280;36611;51.638;5.784;2023-02-19T03:05:01;101715.69;;;14.05;62.83
48848;BME280;36611;51.638;5.784;2023-02-19T03:07:57;101715.81;;;14.03;62.52
48848;BME280;36611;51.638;5.784;2023-02-19T03:10:33;101712.44;;;13.99;62.94
48848;BME280;36611;51.638;5.784;2023-02-19T03:13:05;101718.06;;;13.96;62.75
48848;BME280;36611;51.638;5.784;2023-02-19T03:15:56;101719.06;;;13.95;62.52
48848;BME280;36611;51.638;5.784;2023-02-19T03:18:45;101723.69;;;13.93;62.92
48848;BME280;36611;51.638;5.784;2023-02-19T03:21:34;101729.22;;;13.92;62.60
48848;BME280;36611;51.638;5.784;2023-02-19T03:24:09;101723.06;;;13.90;62.53
48848;BME280;36611;51.638;5.784;2023-02-19T03:26:56;101727.69;;;13.88;62.77
48848;BME280;36611;51.638;5.784;2023-02-19T03:29:30;101731.38;;;13.87;62.61
48848;BME280;36611;51.638;5.784;2023-02-19T03:32:07;101730.63;;;13.85;62.69
48848;BME280;36611;51.638;5.784;2023-02-19T03:34:37;101735.03;;;13.86;62.90
48848;BME280;36611;51.638;5.784;2023-02-19T03:37:29;101731.47;;;13.85;62.67
48848;BME280;36611;51.638;5.784;2023-02-19T03:39:58;101731.38;;;13.87;62.71
48848;BME280;36611;51.638;5.784;2023-02-19T03:45:17;101730.63;;;13.85;62.50
48848;BME280;36611;51.638;5.784;2023-02-19T03:48:23;101747.56;;;13.87;62.59
48848;BME280;36611;51.638;5.784;2023-02-19T03:50:57;101746.72;;;13.86;62.64
48848;BME280;36611;51.638;5.784;2023-02-19T03:56:32;101762.69;;;13.89;62.58
48848;BME280;36611;51.638;5.784;2023-02-19T03:59:12;101772.63;;;13.89;62.75
48848;BME280;36611;51.638;5.784;2023-02-19T04:01:47;101778.91;;;13.89;62.89
48848;BME280;36611;51.638;5.784;2023-02-19T04:04:25;101766.25;;;13.90;62.65
48848;BME280;36611;51.638;5.784;2023-02-19T04:06:55;101774.34;;;13.90;62.71
48848;BME280;36611;51.638;5.784;2023-02-19T04:09:28;101768.19;;;13.88;62.37
48848;BME280;36611;51.638;5.784;2023-02-19T04:12:04;101779.88;;;13.88;62.29
48848;BME280;36611;51.638;5.784;2023-02-19T04:14:37;101783.53;;;13.87;62.69
48848;BME280;36611;51.638;5.784;2023-02-19T04:17:08;101795.31;;;13.86;62.66
48848;BME280;36611;51.638;5.784;2023-02-19T04:19:40;101796.94;;;13.89;62.64
48848;BME280;36611;51.638;5.784;2023-02-19T04:22:09;101801.47;;;13.88;62.59
48848;BME280;36611;51.638;5.784;2023-02-19T04:24:40;101807.72;;;13.89;62.50
48848;BME280;36611;51.638;5.784;2023-02-19T04:27:09;101806.00;;;13.88;62.68
48848;BME280;36611;51.638;5.784;2023-02-19T04:29:36;101799.75;;;13.87;62.60
48848;BME280;36611;51.638;5.784;2023-02-19T04:32:05;101806.09;;;13.86;62.53
48848;BME280;36611;51.638;5.784;2023-02-19T04:34:32;101804.38;;;13.85;62.38
48848;BME280;36611;51.638;5.784;2023-02-19T04:36:58;101807.09;;;13.85;62.44
48848;BME280;36611;51.638;5.784;2023-02-19T04:39:25;101817.88;;;13.85;62.40
48848;BME280;36611;51.638;5.784;2023-02-19T04:41:52;101815.19;;;13.85;62.19
48848;BME280;36611;51.638;5.784;2023-02-19T04:44:19;101818.00;;;13.84;62.65
48848;BME280;36611;51.638;5.784;2023-02-19T04:46:46;101821.66;;;13.83;62.60
48848;BME280;36611;51.638;5.784;2023-02-19T04:49:12;101828.03;;;13.82;62.53
48848;BME280;36611;51.638;5.784;2023-02-19T04:51:39;101827.16;;;13.81;62.25
48848;BME280;36611;51.638;5.784;2023-02-19T04:54:07;101838.06;;;13.80;62.26
48848;BME280;36611;51.638;5.784;2023-02-19T04:56:33;101846.28;;;13.78;62.34
48848;BME280;36611;51.638;5.784;2023-02-19T04:59:00;101859.78;;;13.78;62.21
48848;BME280;36611;51.638;5.784;2023-02-19T05:01:27;101859.78;;;13.78;62.46
48848;BME280;36611;51.638;5.784;2023-02-19T05:03:54;101865.19;;;13.78;62.57
48848;BME280;36611;51.638;5.784;2023-02-19T05:06:20;101866.91;;;13.79;62.42
48848;BME280;36611;51.638;5.784;2023-02-19T05:08:47;101872.31;;;13.79;62.52
48848;BME280;36611;51.638;5.784;2023-02-19T05:11:14;101880.50;;;13.78;62.24
48848;BME280;36611;51.638;5.784;2023-02-19T05:13:40;101872.50;;;13.76;62.71
48848;BME280;36611;51.638;5.784;2023-02-19T05:16:12;101877.16;;;13.74;62.42
48848;BME280;36611;51.638;5.784;2023-02-19T05:18:42;101879.09;;;13.72;62.27
48848;BME280;36611;51.638;5.784;2023-02-19T05:21:10;101882.75;;;13.71;62.83
48848;BME280;36611;51.638;5.784;2023-02-19T05:23:37;101878.53;;;13.67;62.77
48848;BME280;36611;51.638;5.784;2023-02-19T05:26:11;101877.69;;;13.66;62.75
48848;BME280;36611;51.638;5.784;2023-02-19T05:28:39;101881.34;;;13.65;62.97
48848;BME280;36611;51.638;5.784;2023-02-19T05:31:06;101889.44;;;13.65;62.88
48848;BME280;36611;51.638;5.784;2023-02-19T05:33:34;101886.84;;;13.64;62.69
48848;BME280;36611;51.638;5.784;2023-02-19T05:36:10;101879.72;;;13.63;62.81
48848;BME280;36611;51.638;5.784;2023-02-19T05:38:38;101891.47;;;13.62;62.90
48848;BME280;36611;51.638;5.784;2023-02-19T05:43:39;101892.56;;;13.59;63.02
48848;BME280;36611;51.638;5.784;2023-02-19T05:46:06;101891.91;;;13.56;62.88
48848;BME280;36611;51.638;5.784;2023-02-19T05:48:33;101887.38;;;13.56;63.09
48848;BME280;36611;51.638;5.784;2023-02-19T05:51:06;101884.78;;;13.55;63.05
48848;BME280;36611;51.638;5.784;2023-02-19T05:53:34;101891.13;;;13.54;63.02
48848;BME280;36611;51.638;5.784;2023-02-19T05:56:01;101896.53;;;13.54;63.28
48848;BME280;36611;51.638;5.784;2023-02-19T05:58:28;101903.88;;;13.52;63.04
48848;BME280;36611;51.638;5.784;2023-02-19T06:00:55;101892.31;;;13.50;62.96
48848;BME280;36611;51.638;5.784;2023-02-19T06:03:22;101896.72;;;13.51;63.00
48848;BME280;36611;51.638;5.784;2023-02-19T06:05:48;101904.84;;;13.51;63.44
48848;BME280;36611;51.638;5.784;2023-02-19T06:08:15;101902.22;;;13.49;63.16
48848;BME280;36611;51.638;5.784;2023-02-19T06:10:42;101909.47;;;13.49;63.47
48848;BME280;36611;51.638;5.784;2023-02-19T06:13:09;101906.00;;;13.47;63.33
48848;BME280;36611;51.638;5.784;2023-02-19T06:15:36;101913.13;;;13.48;63.15
48848;BME280;36611;51.638;5.784;2023-02-19T06:18:03;101909.66;;;13.46;63.00
48848;BME280;36611;51.638;5.784;2023-02-19T06:20:30;101911.50;;;13.45;63.30
48848;BME280;36611;51.638;5.784;2023-02-19T06:22:56;101914.19;;;13.45;62.93
48848;BME280;36611;51.638;5.784;2023-02-19T06:25:23;101917.75;;;13.46;63.17
48848;BME280;36611;51.638;5.784;2023-02-19T06:27:49;101922.19;;;13.47;63.43
48848;BME280;36611;51.638;5.784;2023-02-19T06:30:16;101922.97;;;13.49;63.60
48848;BME280;36611;51.638;5.784;2023-02-19T06:32:43;101929.31;;;13.48;63.31
48848;BME280;36611;51.638;5.784;2023-02-19T06:35:09;101936.44;;;13.49;63.32
48848;BME280;36611;51.638;5.784;2023-02-19T06:37:36;101939.16;;;13.49;63.42
48848;BME280;36611;51.638;5.784;2023-02-19T06:40:03;101948.13;;;13.49;63.31
48848;BME280;36611;51.638;5.784;2023-02-19T06:42:30;101956.22;;;13.49;63.21
48848;BME280;36611;51.638;5.784;2023-02-19T06:44:58;101957.19;;;13.48;63.37
48848;BME280;36611;51.638;5.784;2023-02-19T06:47:24;101959.97;;;13.47;63.20
48848;BME280;36611;51.638;5.784;2023-02-19T06:49:51;101966.34;;;13.46;63.24
48848;BME280;36611;51.638;5.784;2023-02-19T06:52:17;101962.88;;;13.44;63.60
48848;BME280;36611;51.638;5.784;2023-02-19T06:54:44;101967.50;;;13.42;63.31
48848;BME280;36611;51.638;5.784;2023-02-19T06:57:11;101969.34;;;13.41;63.46
48848;BME280;36611;51.638;5.784;2023-02-19T06:59:37;101972.91;;;13.42;63.29
48848;BME280;36611;51.638;5.784;2023-02-19T07:02:04;101965.66;;;13.42;63.32
48848;BME280;36611;51.638;5.784;2023-02-19T07:04:30;101963.84;;;13.43;63.52
48848;BME280;36611;51.638;5.784;2023-02-19T07:06:57;101967.41;;;13.43;63.36
48848;BME280;36611;51.638;5.784;2023-02-19T07:09:25;101972.81;;;13.43;63.48
48848;BME280;36611;51.638;5.784;2023-02-19T07:11:53;101980.03;;;13.43;63.56
48848;BME280;36611;51.638;5.784;2023-02-19T07:14:20;101993.53;;;13.43;63.59
48848;BME280;36611;51.638;5.784;2023-02-19T07:16:47;101993.63;;;13.41;63.30
48848;BME280;36611;51.638;5.784;2023-02-19T07:19:14;101996.31;;;13.41;63.72
48848;BME280;36611;51.638;5.784;2023-02-19T07:21:41;102000.84;;;13.41;63.28
48848;BME280;36611;51.638;5.784;2023-02-19T07:24:08;102002.69;;;13.40;63.55
48848;BME280;36611;51.638;5.784;2023-02-19T07:26:35;102010.78;;;13.40;63.44
48848;BME280;36611;51.638;5.784;2023-02-19T07:29:02;102011.75;;;13.39;63.31
48848;BME280;36611;51.638;5.784;2023-02-19T07:31:29;102022.34;;;13.42;63.61
48848;BME280;36611;51.638;5.784;2023-02-19T07:33:56;102017.91;;;13.41;63.52
48848;BME280;36611;51.638;5.784;2023-02-19T07:36:23;102025.03;;;13.42;63.28
48848;BME280;36611;51.638;5.784;2023-02-19T07:38:57;102032.16;;;13.43;63.77
48848;BME280;36611;51.638;5.784;2023-02-19T07:41:25;102030.03;;;13.48;63.59
48848;BME280;36611;51.638;5.784;2023-02-19T07:43:55;102046.13;;;13.50;63.51
48848;BME280;36611;51.638;5.784;2023-02-19T07:46:22;102044.19;;;13.52;63.27
48848;BME280;36611;51.638;5.784;2023-02-19T07:48:49;102049.41;;;13.55;63.46
48848;BME280;36611;51.638;5.784;2023-02-19T07:51:18;102052.97;;;13.55;63.49
48848;BME280;36611;51.638;5.784;2023-02-19T07:53:46;102063.66;;;13.57;63.33
48848;BME280;36611;51.638;5.784;2023-02-19T07:56:13;102065.50;;;13.56;63.16
48848;BME280;36611;51.638;5.784;2023-02-19T07:58:40;102066.56;;;13.54;63.20
48848;BME280;36611;51.638;5.784;2023-02-19T08:01:18;102073.88;;;13.52;63.66
48848;BME280;36611;51.638;5.784;2023-02-19T08:04:05;102069.38;;;13.52;63.44
48848;BME280;36611;51.638;5.784;2023-02-19T08:06:32;102081.22;;;13.50;63.52
48848;BME280;36611;51.638;5.784;2023-02-19T08:08:59;102084.97;;;13.47;63.56
48848;BME280;36611;51.638;5.784;2023-02-19T08:11:25;102094.13;;;13.45;63.51
48848;BME280;36611;51.638;5.784;2023-02-19T08:14:11;102098.66;;;13.44;63.69
48848;BME280;36611;51.638;5.784;2023-02-19T08:16:37;102101.38;;;13.44;63.55
48848;BME280;36611;51.638;5.784;2023-02-19T08:19:08;102102.34;;;13.43;63.85
48848;BME280;36611;51.638;5.784;2023-02-19T08:21:35;102101.47;;;13.43;63.93
48848;BME280;36611;51.638;5.784;2023-02-19T08:24:03;102098.75;;;13.43;63.86
48848;BME280;36611;51.638;5.784;2023-02-19T08:26:31;102102.34;;;13.43;63.58
48848;BME280;36611;51.638;5.784;2023-02-19T08:28:58;102109.47;;;13.44;63.73
48848;BME280;36611;51.638;5.784;2023-02-19T08:31:25;102105.91;;;13.44;64.09
48848;BME280;36611;51.638;5.784;2023-02-19T08:33:53;102106.66;;;13.46;63.92
48848;BME280;36611;51.638;5.784;2023-02-19T08:36:20;102117.38;;;13.47;64.03
48848;BME280;36611;51.638;5.784;2023-02-19T08:38:46;102109.16;;;13.49;63.94
48848;BME280;36611;51.638;5.784;2023-02-19T08:41:14;102110.72;;;13.53;64.22
48848;BME280;36611;51.638;5.784;2023-02-19T08:43:41;102106.75;;;13.58;64.08
48848;BME280;36611;51.638;5.784;2023-02-19T08:46:09;102106.56;;;13.61;64.26
48848;BME280;36611;51.638;5.784;2023-02-19T08:48:37;102115.31;;;13.65;64.40
48848;BME280;36611;51.638;5.784;2023-02-19T08:51:06;102116.09;;;13.67;64.13
48848;BME280;36611;51.638;5.784;2023-02-19T08:53:35;102132.19;;;13.68;64.05
48848;BME280;36611;51.638;5.784;2023-02-19T08:56:13;102131.13;;;13.71;64.32
48848;BME280;36611;51.638;5.784;2023-02-19T08:58:41;102138.16;;;13.74;63.90
48848;BME280;36611;51.638;5.784;2023-02-19T09:01:10;102141.75;;;13.74;64.13
48848;BME280;36611;51.638;5.784;2023-02-19T09:03:38;102141.75;;;13.74;63.89
48848;BME280;36611;51.638;5.784;2023-02-19T09:06:05;102144.44;;;13.74;64.16
48848;BME280;36611;51.638;5.784;2023-02-19T09:08:31;102156.97;;;13.75;64.14
48848;BME280;36611;51.638;5.784;2023-02-19T09:11:00;102148.00;;;13.75;64.16
48848;BME280;36611;51.638;5.784;2023-02-19T09:13:27;102151.66;;;13.74;63.89
48848;BME280;36611;51.638;5.784;2023-02-19T09:15:53;102160.63;;;13.74;64.07
48848;BME280;36611;51.638;5.784;2023-02-19T09:18:23;102153.31;;;13.76;64.22
48848;BME280;36611;51.638;5.784;2023-02-19T09:20:50;102163.91;;;13.79;64.00
48848;BME280;36611;51.638;5.784;2023-02-19T09:23:16;102160.16;;;13.82;64.53
48848;BME280;36611;51.638;5.784;2023-02-19T09:25:43;102157.34;;;13.83;64.50
48848;BME280;36611;51.638;5.784;2023-02-19T09:28:10;102153.78;;;13.83;64.47
48848;BME280;36611;51.638;5.784;2023-02-19T09:30:36;102150.13;;;13.84;64.22
48848;BME280;36611;51.638;5.784;2023-02-19T09:33:04;102160.91;;;13.84;64.44
48848;BME280;36611;51.638;5.784;2023-02-19T09:35:31;102160.91;;;13.84;64.44
48848;BME280;36611;51.638;5.784;2023-02-19T09:37:59;102156.47;;;13.83;64.41
48848;BME280;36611;51.638;5.784;2023-02-19T09:40:29;102154.56;;;13.85;64.18
48848;BME280;36611;51.638;5.784;2023-02-19T09:42:56;102164.59;;;13.83;64.42
48848;BME280;36611;51.638;5.784;2023-02-19T09:45:24;102164.59;;;13.83;64.59
48848;BME280;36611;51.638;5.784;2023-02-19T09:47:53;102166.31;;;13.84;64.35
48848;BME280;36611;51.638;5.784;2023-02-19T09:50:26;102171.72;;;13.84;64.46
48848;BME280;36611;51.638;5.784;2023-02-19T09:52:57;102183.38;;;13.84;64.21
48848;BME280;36611;51.638;5.784;2023-02-19T09:55:38;102205.00;;;13.84;64.05
48848;BME280;36611;51.638;5.784;2023-02-19T09:58:17;102216.75;;;13.83;64.38
48848;BME280;36611;51.638;5.784;2023-02-19T10:00:48;102225.72;;;13.84;64.28
48848;BME280;36611;51.638;5.784;2023-02-19T10:03:29;102228.34;;;13.85;64.49
48848;BME280;36611;51.638;5.784;2023-02-19T10:06:07;102227.38;;;13.86;64.24
48848;BME280;36611;51.638;5.784;2023-02-19T10:08:38;102231.91;;;13.86;64.27
48848;BME280;36611;51.638;5.784;2023-02-19T10:11:06;102240.88;;;13.86;64.54
48848;BME280;36611;51.638;5.784;2023-02-19T10:13:40;102246.06;;;13.89;64.30
48848;BME280;36611;51.638;5.784;2023-02-19T10:16:13;102249.75;;;13.88;64.74
48848;BME280;36611;51.638;5.784;2023-02-19T10:18:44;102258.63;;;13.90;64.37
48848;BME280;36611;51.638;5.784;2023-02-19T10:21:16;102247.81;;;13.90;64.25
48848;BME280;36611;51.638;5.784;2023-02-19T10:23:46;102255.91;;;13.90;64.52
48848;BME280;36611;51.638;5.784;2023-02-19T10:26:14;102260.53;;;13.88;64.05
48848;BME280;36611;51.638;5.784;2023-02-19T10:28:41;102267.78;;;13.88;64.16
48848;BME280;36611;51.638;5.784;2023-02-19T10:31:20;102280.41;;;13.87;64.48
48848;BME280;36611;51.638;5.784;2023-02-19T10:36:51;102278.19;;;13.94;64.55
48848;BME280;36611;51.638;5.784;2023-02-19T10:41:48;102281.28;;;14.02;64.43
48848;BME280;36611;51.638;5.784;2023-02-19T10:44:32;102289.19;;;14.05;64.19
48848;BME280;36611;51.638;5.784;2023-02-19T10:47:06;102277.13;;;14.11;64.42
48848;BME280;36611;51.638;5.784;2023-02-19T10:49:36;102294.06;;;14.14;64.21
48848;BME280;36611;51.638;5.784;2023-02-19T10:52:14;102301.88;;;14.19;64.84
48848;BME280;36611;51.638;5.784;2023-02-19T10:54:44;102308.81;;;14.23;64.41
48848;BME280;36611;51.638;5.784;2023-02-19T11:00:04;102312.28;;;14.25;64.08
48848;BME280;36611;51.638;5.784;2023-02-19T11:02:38;102315.66;;;14.28;64.12
48848;BME280;36611;51.638;5.784;2023-02-19T11:07:35;102301.00;;;14.32;63.91
48848;BME280;36611;51.638;5.784;2023-02-19T11:10:04;102304.47;;;14.35;63.88
48848;BME280;36611;51.638;5.784;2023-02-19T11:12:33;102299.94;;;14.35;63.48
48848;BME280;36611;51.638;5.784;2023-02-19T11:15:20;102299.72;;;14.38;63.43
48848;BME280;36611;51.638;5.784;2023-02-19T11:17:56;102299.72;;;14.38;63.28
48848;BME280;36611;51.638;5.784;2023-02-19T11:20:24;102294.53;;;14.35;62.97
48848;BME280;36611;51.638;5.784;2023-02-19T11:22:57;102288.34;;;14.33;63.31
48848;BME280;36611;51.638;5.784;2023-02-19T11:25:24;102289.22;;;14.34;63.13
48848;BME280;36611;51.638;5.784;2023-02-19T11:28:03;102278.69;;;14.29;62.52
48848;BME280;36611;51.638;5.784;2023-02-19T11:30:36;102285.94;;;14.28;62.85
48848;BME280;36611;51.638;5.784;2023-02-19T11:35:43;102286.03;;;14.27;62.95
48848;BME280;36611;51.638;5.784;2023-02-19T11:38:16;102280.53;;;14.28;62.94
48848;BME280;36611;51.638;5.784;2023-02-19T11:41:06;102280.03;;;14.36;63.10
48848;BME280;36611;51.638;5.784;2023-02-19T11:46:31;102276.38;;;14.51;63.21
48848;BME280;36611;51.638;5.784;2023-02-19T11:49:26;102280.63;;;14.55;62.81
48848;BME280;36611;51.638;5.784;2023-02-19T11:52:08;102280.31;;;14.60;63.04
48848;BME280;36611;51.638;5.784;2023-02-19T11:54:53;102286.59;;;14.60;62.70
48848;BME280;36611;51.638;5.784;2023-02-19T12:00:23;102302.25;;;14.55;62.11
48848;BME280;36611;51.638;5.784;2023-02-19T12:11:13;102292.69;;;14.36;61.39
48848;BME280;36611;51.638;5.784;2023-02-19T12:19:28;102302.06;;;14.30;61.67
48848;BME280;36611;51.638;5.784;2023-02-19T12:22:05;102303.69;;;14.32;61.57
48848;BME280;36611;51.638;5.784;2023-02-19T12:28:02;102299.06;;;14.35;61.27
48848;BME280;36611;51.638;5.784;2023-02-19T12:36:30;102299.63;;;14.40;61.01
48848;BME280;36611;51.638;5.784;2023-02-19T12:39:13;102288.81;;;14.40;61.25
48848;BME280;36611;51.638;5.784;2023-02-19T12:42:10;102293.34;;;14.39;60.65
48848;BME280;36611;51.638;5.784;2023-02-19T12:44:39;102296.84;;;14.41;60.85
48848;BME280;36611;51.638;5.784;2023-02-19T12:47:17;102288.81;;;14.40;60.72
48848;BME280;36611;51.638;5.784;2023-02-19T12:49:50;102296.84;;;14.41;60.33
48848;BME280;36611;51.638;5.784;2023-02-19T12:52:25;102294.94;;;14.43;60.51
48848;BME280;36611;51.638;5.784;2023-02-19T12:54:56;102297.44;;;14.46;60.89
48848;BME280;36611;51.638;5.784;2023-02-19T12:57:30;102306.31;;;14.48;60.60
48848;BME280;36611;51.638;5.784;2023-02-19T13:02:43;102314.63;;;14.45;60.57
48848;BME280;36611;51.638;5.784;2023-02-19T13:10:55;102314.63;;;14.45;60.42
48848;BME280;36611;51.638;5.784;2023-02-19T13:13:29;102318.00;;;14.49;60.58
48848;BME280;36611;51.638;5.784;2023-02-19T13:16:08;102321.38;;;14.52;60.49
48848;BME280;36611;51.638;5.784;2023-02-19T13:18:45;102326.59;;;14.55;60.39
48848;BME280;36611;51.638;5.784;2023-02-19T13:21:16;102337.31;;;14.57;60.19
48848;BME280;36611;51.638;5.784;2023-02-19T13:24:07;102321.19;;;14.55;59.84
48848;BME280;36611;51.638;5.784;2023-02-19T13:29:51;102341.38;;;14.50;59.62
48848;BME280;36611;51.638;5.784;2023-02-19T13:32:36;102343.28;;;14.48;59.33
48848;BME280;36611;51.638;5.784;2023-02-19T13:37:38;102359.19;;;14.38;59.25
48848;BME280;36611;51.638;5.784;2023-02-19T13:40:51;102352.44;;;14.31;58.77
48848;BME280;36611;51.638;5.784;2023-02-19T13:43:26;102358.81;;;14.30;59.07
48848;BME280;36611;51.638;5.784;2023-02-19T13:46:03;102367.19;;;14.25;58.71
48848;BME280;36611;51.638;5.784;2023-02-19T13:48:35;102389.97;;;14.21;58.76
48848;BME280;36611;51.638;5.784;2023-02-19T13:59:23;102377.84;;;13.98;58.03
48848;BME280;36611;51.638;5.784;2023-02-19T14:04:25;102377.16;;;13.95;58.51
48848;BME280;36611;51.638;5.784;2023-02-19T14:14:35;102390.81;;;13.78;58.48
48848;BME280;36611;51.638;5.784;2023-02-19T14:17:03;102392.94;;;13.73;57.98
48848;BME280;36611;51.638;5.784;2023-02-19T14:30:29;102405.06;;;13.65;58.22
48848;BME280;36611;51.638;5.784;2023-02-19T14:32:57;102407.84;;;13.64;58.17
48848;BME280;36611;51.638;5.784;2023-02-19T14:35:42;102412.38;;;13.63;58.23
48848;BME280;36611;51.638;5.784;2023-02-19T14:38:15;102409.59;;;13.65;58.37
48848;BME280;36611;51.638;5.784;2023-02-19T14:40:44;102398.88;;;13.63;58.10
48848;BME280;36611;51.638;5.784;2023-02-19T14:43:14;102389.13;;;13.61;58.60
48848;BME280;36611;51.638;5.784;2023-02-19T14:45:46;102392.69;;;13.61;58.61
48848;BME280;36611;51.638;5.784;2023-02-19T14:48:18;102403.22;;;13.66;58.32
48848;BME280;36611;51.638;5.784;2023-02-19T14:50:50;102402.09;;;13.70;58.46
48848;BME280;36611;51.638;5.784;2023-02-19T14:53:19;102397.28;;;13.75;58.38
48848;BME280;36611;51.638;5.784;2023-02-19T14:55:48;102382.81;;;13.76;58.27
48848;BME280;36611;51.638;5.784;2023-02-19T14:58:21;102378.19;;;13.78;58.41
48848;BME280;36611;51.638;5.784;2023-02-19T15:00:51;102377.91;;;13.83;58.30
48848;BME280;36611;51.638;5.784;2023-02-19T15:03:28;102374.34;;;13.82;58.74